Time;durP1;ratioP1;P1;durP2;ratioP2;P2;SDS_P1;SDS_P2;PMS_P1;PMS_P2;Temp;Humidity;BMP_temperature;BMP_pressure;BME280_temperature;BME280_humidity;BME280_pressure;Samples;Min_cycle;Max_cycle;Signal;HPM_P1;HPM_P2
2021/08/12 00:01:23;;;;;;;14.45;5.13;;;;;;;19.00;61.79;99364.90;129844;1093;23283;-54
2021/08/12 00:03:53;;;;;;;13.33;5.33;;;;;;;18.97;61.88;99364.72;129800;1092;22592;-53
2021/08/12 00:06:22;;;;;;;11.68;5.93;;;;;;;18.95;62.01;99365.03;129753;1093;114235;-53
2021/08/12 00:08:51;;;;;;;11.18;5.40;;;;;;;18.93;62.08;99364.52;129771;1092;23212;-54
2021/08/12 00:11:19;;;;;;;11.93;5.50;;;;;;;18.91;62.42;99357.69;129700;1093;115360;-53
2021/08/12 00:13:48;;;;;;;13.43;5.63;;;;;;;18.88;62.43;99361.92;129794;1093;22541;-53
2021/08/12 00:16:17;;;;;;;13.78;5.40;;;;;;;18.85;62.66;99351.50;129745;1092;114105;-53
2021/08/12 00:18:52;;;;;;;7.23;4.88;;;;;;;18.83;62.74;99348.24;129816;1092;22534;-54
2021/08/12 00:21:24;;;;;;;8.25;4.70;;;;;;;18.82;62.86;99354.08;129799;1093;23392;-54
2021/08/12 00:23:53;;;;;;;10.90;4.55;;;;;;;18.81;62.88;99357.97;129693;1092;113899;-53
2021/08/12 00:26:22;;;;;;;12.03;5.20;;;;;;;18.82;62.71;99363.17;129808;1092;22658;-53
2021/08/12 00:28:51;;;;;;;7.78;4.78;;;;;;;18.82;62.86;99359.59;129726;1093;114623;-53
2021/08/12 00:31:21;;;;;;;7.23;5.48;;;;;;;18.82;62.97;99362.36;129761;1093;22550;-54
2021/08/12 00:33:50;;;;;;;7.78;4.93;;;;;;;18.79;63.05;99361.03;129751;1092;22541;-53
2021/08/12 00:36:19;;;;;;;7.68;4.68;;;;;;;18.74;62.95;99350.15;129679;1093;113890;-54
2021/08/12 00:38:48;;;;;;;5.48;4.35;;;;;;;18.71;62.98;99367.33;129808;1093;23656;-54
2021/08/12 00:41:17;;;;;;;7.95;4.73;;;;;;;18.66;63.27;99359.98;129673;1093;114034;-53
2021/08/12 00:43:46;;;;;;;6.25;4.63;;;;;;;18.65;63.46;99357.55;129733;1095;22583;-54
2021/08/12 00:46:15;;;;;;;6.20;5.13;;;;;;;18.60;63.43;99357.69;129633;1095;113994;-53
2021/08/12 00:48:44;;;;;;;5.95;4.30;;;;;;;18.52;63.80;99361.98;129732;1095;22557;-54
2021/08/12 00:51:13;;;;;;;6.78;4.03;;;;;;;18.46;64.11;99365.19;129672;1096;22715;-53
2021/08/12 00:53:43;;;;;;;6.60;4.68;;;;;;;18.41;64.26;99368.06;129614;1096;114056;-53
2021/08/12 00:56:12;;;;;;;6.33;4.85;;;;;;;18.37;64.52;99373.39;129753;1096;22563;-53
2021/08/12 00:58:41;;;;;;;6.25;4.95;;;;;;;18.34;64.57;99380.34;129560;1095;114140;-53
2021/08/12 01:01:10;;;;;;;6.50;4.77;;;;;;;18.30;64.72;99376.59;129714;1096;22567;-53
2021/08/12 01:03:39;;;;;;;6.50;4.88;;;;;;;18.29;64.73;99385.19;129747;1095;22583;-53
2021/08/12 01:06:08;;;;;;;7.78;4.68;;;;;;;18.23;64.81;99384.47;129637;1094;113832;-53
2021/08/12 01:08:56;;;;;;;6.70;4.68;;;;;;;18.20;65.17;99384.27;129712;1096;22555;-53
2021/08/12 01:11:33;;;;;;;5.40;4.30;;;;;;;18.15;65.35;99384.41;129626;1095;113996;-53
2021/08/12 01:14:06;;;;;;;6.53;5.23;;;;;;;18.12;65.47;99388.60;129770;1095;22585;-53
2021/08/12 01:16:38;;;;;;;10.10;5.35;;;;;;;18.08;65.92;99384.83;129649;1093;114074;-53
2021/08/12 01:19:36;;;;;;;7.93;4.75;;;;;;;18.04;65.78;99392.08;129786;1092;22595;-53
2021/08/12 01:22:05;;;;;;;6.05;4.45;;;;;;;18.01;66.47;99388.03;129797;1093;22552;-53
2021/08/12 01:24:36;;;;;;;7.30;4.90;;;;;;;17.97;66.40;99400.79;129707;1093;115472;-53
2021/08/12 01:27:08;;;;;;;6.75;5.15;;;;;;;17.95;66.77;99394.77;129751;1093;22633;-53
2021/08/12 01:29:37;;;;;;;4.88;4.35;;;;;;;17.93;66.76;99401.70;129642;1093;114151;-53
2021/08/12 01:32:19;;;;;;;5.18;4.45;;;;;;;17.91;66.78;99403.95;129798;1092;22593;-53
2021/08/12 01:34:58;;;;;;;8.58;4.90;;;;;;;17.90;67.05;99405.08;129728;1093;114001;-53
2021/08/12 01:37:38;;;;;;;6.68;4.30;;;;;;;17.89;67.16;99404.26;129799;1093;22546;-53
2021/08/12 01:40:11;;;;;;;6.13;4.95;;;;;;;17.88;67.29;99399.91;129826;1093;23352;-53
2021/08/12 01:42:41;;;;;;;5.33;4.55;;;;;;;17.87;67.29;99408.48;129642;1093;114877;-53
2021/08/12 01:45:12;;;;;;;5.83;4.83;;;;;;;17.87;67.22;99408.48;129767;1093;23304;-53
2021/08/12 01:47:42;;;;;;;7.20;5.10;;;;;;;17.86;67.32;99401.33;129672;1093;114372;-52
2021/08/12 01:50:13;;;;;;;7.95;4.63;;;;;;;17.88;67.34;99410.11;129742;1093;22550;-53
2021/08/12 01:52:48;;;;;;;5.93;4.90;;;;;;;17.86;67.47;99404.90;129650;1093;114337;-53
2021/08/12 01:55:21;;;;;;;7.75;5.05;;;;;;;17.84;67.54;99407.14;129755;1093;23106;-53
2021/08/12 01:57:51;;;;;;;8.13;4.68;;;;;;;17.84;67.61;99406.33;129803;1093;22528;-53
2021/08/12 02:00:19;;;;;;;5.23;4.65;;;;;;;17.80;67.84;99408.88;129628;1093;114122;-53
2021/08/12 02:02:48;;;;;;;7.20;5.73;;;;;;;17.77;67.82;99409.48;129808;1093;23637;-53
2021/08/12 02:05:18;;;;;;;6.35;4.90;;;;;;;17.75;68.19;99410.91;129608;1096;113972;-53
2021/08/12 02:07:48;;;;;;;7.43;5.63;;;;;;;17.73;68.15;99402.17;129707;1096;22648;-53
2021/08/12 02:10:18;;;;;;;5.78;4.70;;;;;;;17.70;68.21;99398.08;129406;1096;22567;-54
2021/08/12 02:12:47;;;;;;;5.53;4.78;;;;;;;17.65;68.23;99392.67;129679;1096;113708;-54
2021/08/12 02:15:17;;;;;;;6.68;5.40;;;;;;;17.62;68.30;99396.00;129725;1096;22541;-53
2021/08/12 02:17:46;;;;;;;5.65;4.75;;;;;;;17.59;68.76;99402.97;129621;1095;114265;-53
2021/08/12 02:20:15;;;;;;;6.08;4.50;;;;;;;17.57;68.62;99404.39;129730;1095;23385;-54
2021/08/12 02:23:05;;;;;;;6.33;5.53;;;;;;;17.55;68.93;99417.66;129617;1096;113887;-53
2021/08/12 02:25:40;;;;;;;7.18;5.30;;;;;;;17.54;68.88;99424.28;129739;1096;22592;-53
2021/08/12 02:28:10;;;;;;;6.45;5.40;;;;;;;17.51;69.13;99417.44;129767;1096;22641;-53
2021/08/12 02:30:40;;;;;;;7.70;4.80;;;;;;;17.49;69.33;99418.86;129636;1096;115131;-53
2021/08/12 02:33:12;;;;;;;6.18;5.50;;;;;;;17.44;69.33;99422.55;129632;1095;25158;-53
2021/08/12 02:35:41;;;;;;;9.68;5.33;;;;;;;17.42;69.40;99434.99;129365;1096;113791;-53
2021/08/12 02:38:11;;;;;;;6.20;5.43;;;;;;;17.39;69.78;99432.84;129803;1093;22768;-53
2021/08/12 02:40:43;;;;;;;8.28;5.78;;;;;;;17.33;69.88;99432.93;129666;1093;113968;-53
2021/08/12 02:43:12;;;;;;;8.73;5.85;;;;;;;17.31;70.04;99435.16;129787;1093;22528;-53
2021/08/12 02:45:41;;;;;;;7.33;5.63;;;;;;;17.29;70.32;99436.62;129763;1093;22565;-53
2021/08/12 02:48:10;;;;;;;5.90;5.28;;;;;;;17.28;70.34;99435.80;129675;1093;113991;-53
2021/08/12 02:50:40;;;;;;;8.40;5.75;;;;;;;17.25;70.48;99436.41;129790;1093;22523;-53
2021/08/12 02:53:08;;;;;;;11.38;6.00;;;;;;;17.23;70.71;99444.14;129674;1093;114060;-53
2021/08/12 02:55:38;;;;;;;6.23;5.58;;;;;;;17.23;70.75;99438.64;129731;1093;23503;-53
2021/08/12 02:58:07;;;;;;;7.87;5.93;;;;;;;17.22;70.72;99437.00;129795;1093;23326;-53
2021/08/12 03:00:37;;;;;;;10.05;5.70;;;;;;;17.23;70.89;99443.33;129705;1093;114591;-53
2021/08/12 03:03:06;;;;;;;9.05;6.50;;;;;;;17.24;70.68;99443.03;129773;1092;22557;-53
2021/08/12 03:05:36;;;;;;;9.65;6.00;;;;;;;17.25;70.86;99441.91;129680;1093;113796;-53
2021/08/12 03:08:05;;;;;;;11.03;6.58;;;;;;;17.26;70.98;99445.48;129794;1093;23076;-53
2021/08/12 03:10:34;;;;;;;11.80;6.25;;;;;;;17.25;70.88;99441.91;129661;1092;114079;-53
2021/08/12 03:13:03;;;;;;;8.95;5.55;;;;;;;17.25;71.06;99447.42;129750;1093;22532;-53
2021/08/12 03:15:34;;;;;;;9.18;6.85;;;;;;;17.25;71.13;99447.42;129792;1093;22577;-54
2021/08/12 03:18:03;;;;;;;9.10;6.33;;;;;;;17.27;71.10;99452.63;129672;1093;114215;-53
2021/08/12 03:20:32;;;;;;;11.95;7.18;;;;;;;17.27;71.21;99447.94;129783;1093;22531;-53
2021/08/12 03:23:01;;;;;;;8.45;6.40;;;;;;;17.26;71.17;99451.80;129705;1093;114642;-53
2021/08/12 03:25:31;;;;;;;7.83;6.43;;;;;;;17.26;71.13;99442.73;129807;1092;22537;-53
2021/08/12 03:28:00;;;;;;;7.50;6.35;;;;;;;17.29;71.15;99453.95;129819;1092;22641;-53
2021/08/12 03:30:29;;;;;;;11.45;6.90;;;;;;;17.35;71.08;99448.34;129652;1093;113809;-53
2021/08/12 03:32:59;;;;;;;7.93;5.98;;;;;;;17.38;70.81;99459.56;129847;1093;22535;-53
2021/08/12 03:35:28;;;;;;;10.08;6.53;;;;;;;17.44;70.70;99463.05;129691;1093;114918;-53
2021/08/12 03:37:57;;;;;;;9.93;6.95;;;;;;;17.46;70.52;99461.60;129773;1093;22660;-52
2021/08/12 03:40:26;;;;;;;8.95;6.18;;;;;;;17.47;70.47;99465.99;129780;1093;23062;-53
2021/08/12 03:42:55;;;;;;;11.98;7.10;;;;;;;17.48;70.34;99461.30;129702;1092;113729;-53
2021/08/12 03:45:24;;;;;;;8.05;6.70;;;;;;;17.51;70.27;99463.45;129868;1093;23067;-53
2021/08/12 03:47:53;;;;;;;9.20;6.85;;;;;;;17.49;70.03;99462.94;129678;1092;113850;-53
2021/08/12 03:50:23;;;;;;;9.13;6.85;;;;;;;17.49;70.19;99468.45;129798;1093;23364;-53
2021/08/12 03:52:53;;;;;;;8.65;6.70;;;;;;;17.47;70.00;99474.25;129647;1094;114177;-52
2021/08/12 03:55:23;;;;;;;10.93;6.65;;;;;;;17.47;69.95;99484.45;129736;1096;23281;-53
2021/08/12 03:57:52;;;;;;;9.85;6.43;;;;;;;17.47;69.93;99482.52;129714;1095;22553;-53
2021/08/12 04:00:22;;;;;;;7.45;5.73;;;;;;;17.46;69.75;99480.06;129590;1095;114008;-53
2021/08/12 04:02:52;;;;;;;8.28;5.80;;;;;;;17.48;69.80;99489.66;129372;1096;22556;-53
2021/08/12 04:05:22;;;;;;;17.63;6.45;;;;;;;17.48;69.65;99486.91;129610;1095;114414;-53
2021/08/12 04:07:51;;;;;;;11.18;6.35;;;;;;;17.45;69.47;99495.81;129727;1094;22653;-54
2021/08/12 04:10:21;;;;;;;8.28;6.05;;;;;;;17.42;69.46;99493.66;129703;1096;23206;-53
2021/08/12 04:12:51;;;;;;;9.75;6.23;;;;;;;17.41;69.55;99499.46;129656;1096;114002;-53
2021/08/12 04:15:21;;;;;;;7.50;5.68;;;;;;;17.43;69.75;99502.73;129740;1094;22570;-53
2021/08/12 04:17:49;;;;;;;7.70;6.00;;;;;;;17.44;69.68;99510.70;129617;1094;113943;-53
2021/08/12 04:20:18;;;;;;;9.13;5.80;;;;;;;17.45;69.36;99500.50;129718;1096;22590;-53
2021/08/12 04:22:47;;;;;;;11.53;6.13;;;;;;;17.44;69.24;99498.86;129673;1095;113904;-53
2021/08/12 04:25:17;;;;;;;10.53;5.73;;;;;;;17.44;69.27;99507.94;129775;1093;22571;-53
2021/08/12 04:27:45;;;;;;;7.35;6.03;;;;;;;17.46;69.40;99504.86;129738;1092;23648;-53
2021/08/12 04:30:15;;;;;;;9.80;5.55;;;;;;;17.49;69.46;99507.83;129685;1093;114959;-53
2021/08/12 04:32:44;;;;;;;26.95;8.03;;;;;;;17.53;69.02;99508.05;129770;1092;22541;-53
2021/08/12 04:35:13;;;;;;;6.45;5.68;;;;;;;17.56;68.91;99512.95;129695;1093;114150;-53
2021/08/12 04:37:44;;;;;;;9.60;5.53;;;;;;;17.54;69.07;99513.26;129835;1092;22977;-54
2021/08/12 04:40:16;;;;;;;9.63;5.35;;;;;;;17.56;69.01;99518.47;129792;1092;22528;-53
2021/08/12 04:42:49;;;;;;;9.45;5.73;;;;;;;17.57;69.13;99507.14;129981;1090;114052;-53
2021/08/12 04:45:20;;;;;;;13.53;5.90;;;;;;;17.56;68.77;99502.75;130093;1089;22550;-53
2021/08/12 04:47:51;;;;;;;10.05;5.28;;;;;;;17.69;68.78;99511.36;129644;1092;114372;-53
2021/08/12 04:50:19;;;;;;;8.43;5.18;;;;;;;17.77;68.72;99518.91;130065;1090;22561;-54
2021/08/12 04:52:48;;;;;;;6.38;5.30;;;;;;;17.88;68.38;99517.61;129974;1090;114394;-54
2021/08/12 04:55:19;;;;;;;9.68;5.05;;;;;;;18.03;67.87;99519.23;130073;1090;22639;-53
2021/08/12 04:57:47;;;;;;;7.08;5.00;;;;;;;18.24;67.40;99520.43;130068;1090;22672;-53
2021/08/12 05:00:16;;;;;;;7.43;4.53;;;;;;;18.48;66.32;99532.03;129948;1090;114188;-53
2021/08/12 05:02:46;;;;;;;7.17;4.47;;;;;;;18.74;65.52;99525.98;130073;1090;22554;-54
2021/08/12 05:05:15;;;;;;;8.75;4.88;;;;;;;18.99;64.64;99522.61;129971;1090;114472;-55
2021/08/12 05:08:00;;;;;;;11.55;5.03;;;;;;;19.27;64.11;99521.34;130112;1089;22608;-56
2021/08/12 05:10:31;;;;;;;7.45;5.33;;;;;;;19.54;63.89;99520.38;130015;1090;22569;-56
2021/08/12 05:13:03;;;;;;;7.25;4.73;;;;;;;19.91;62.82;99523.82;129948;1090;113498;-55
2021/08/12 05:18:12;;;;;;;6.60;4.75;;;;;;;20.63;60.50;99523.37;125514;1093;22757;-54
2021/08/12 05:20:41;;;;;;;5.08;3.98;;;;;;;20.89;59.83;99526.95;129793;1093;23159;-56
2021/08/12 05:23:11;;;;;;;5.65;4.68;;;;;;;21.14;58.29;99528.89;129868;1093;113892;-57
2021/08/12 05:25:46;;;;;;;6.78;4.95;;;;;;;21.27;58.05;99523.52;129809;1092;23749;-57
2021/08/12 05:28:15;;;;;;;7.33;4.98;;;;;;;21.40;57.81;99516.97;129838;1093;22535;-57
2021/08/12 05:30:44;;;;;;;8.05;4.50;;;;;;;21.58;56.92;99513.02;129853;1093;113388;-57
2021/08/12 05:33:13;;;;;;;4.73;3.93;;;;;;;21.76;56.75;99513.77;129836;1092;23103;-56
2021/08/12 05:35:43;;;;;;;6.65;4.00;;;;;;;21.97;56.39;99513.83;129822;1093;113399;-57
2021/08/12 05:38:21;;;;;;;8.15;4.00;;;;;;;22.19;54.61;99516.37;130031;1093;22604;-56
2021/08/12 05:40:50;;;;;;;13.20;4.70;;;;;;;22.25;54.33;99506.69;129714;1093;113598;-56
2021/08/12 05:43:20;;;;;;;10.88;4.20;;;;;;;22.28;54.38;99514.34;129978;1092;22551;-55
2021/08/12 05:45:50;;;;;;;6.70;3.83;;;;;;;22.39;54.02;99500.88;130012;1093;23163;-54
2021/08/12 05:48:20;;;;;;;10.68;4.33;;;;;;;22.49;53.14;99509.65;129817;1093;114362;-54
2021/08/12 05:50:50;;;;;;;10.45;4.45;;;;;;;22.50;52.23;99513.24;129779;1093;22580;-53
2021/08/12 05:53:20;;;;;;;9.30;4.20;;;;;;;22.42;52.26;99505.77;129604;1093;114141;-56
2021/08/12 05:55:48;;;;;;;13.88;4.15;;;;;;;22.31;52.49;99508.13;129785;1092;22536;-56
2021/08/12 05:58:17;;;;;;;9.88;4.20;;;;;;;22.21;52.25;99505.75;129784;1092;22567;-55
2021/08/12 06:00:48;;;;;;;8.38;4.05;;;;;;;22.01;52.88;99507.31;129681;1092;113567;-53
2021/08/12 06:03:17;;;;;;;7.98;4.28;;;;;;;21.86;53.07;99507.84;129734;1093;22546;-56
2021/08/12 06:05:47;;;;;;;10.10;4.10;;;;;;;21.72;53.29;99512.80;129692;1092;113732;-56
2021/08/12 06:08:16;;;;;;;18.78;5.55;;;;;;;21.58;54.14;99503.88;129756;1093;22529;-56
2021/08/12 06:11:05;;;;;;;8.70;4.25;;;;;;;21.48;53.86;99507.83;129669;1092;113977;-56
2021/08/12 06:13:34;;;;;;;8.03;3.60;;;;;;;21.38;53.97;99511.75;129836;1092;23320;-55
2021/08/12 06:16:06;;;;;;;6.67;4.20;;;;;;;21.31;54.36;99522.55;129815;1092;23281;-56
2021/08/12 06:18:39;;;;;;;10.25;4.38;;;;;;;21.22;54.94;99530.03;129625;1093;113464;-55
2021/08/12 06:21:07;;;;;;;5.48;3.90;;;;;;;21.21;54.52;99530.39;129807;1092;22541;-56
2021/08/12 06:23:56;;;;;;;6.93;3.98;;;;;;;21.18;54.52;99543.72;129685;1093;115028;-56
2021/08/12 06:26:26;;;;;;;9.83;4.18;;;;;;;21.17;53.56;99536.55;129783;1093;23358;-56
2021/08/12 06:28:55;;;;;;;7.50;3.63;;;;;;;21.09;53.68;99542.90;129676;1093;113690;-56
2021/08/12 06:31:23;;;;;;;4.18;3.75;;;;;;;20.98;54.09;99544.38;129779;1093;22581;-56
2021/08/12 06:33:54;;;;;;;5.93;3.45;;;;;;;20.88;54.35;99536.41;129762;1092;22657;-55
2021/08/12 06:36:23;;;;;;;8.80;3.35;;;;;;;20.83;55.09;99542.09;129679;1092;113890;-55
2021/08/12 06:38:59;;;;;;;4.23;3.30;;;;;;;20.83;54.44;99547.63;129781;1093;22532;-56
2021/08/12 06:41:35;;;;;;;9.28;4.90;;;;;;;20.82;55.00;99540.46;129692;1093;113496;-58
2021/08/12 06:44:05;;;;;;;12.70;3.80;;;;;;;20.86;54.46;99546.98;129832;1092;22558;-58
2021/08/12 06:46:35;;;;;;;7.30;3.70;;;;;;;20.90;54.38;99547.16;129773;1092;22980;-58
2021/08/12 06:49:07;;;;;;;5.35;3.23;;;;;;;20.93;53.70;99541.77;129603;1093;114645;-58
2021/08/12 06:51:39;;;;;;;29.53;5.08;;;;;;;20.87;54.13;99536.73;129809;1093;22572;-58
2021/08/12 06:54:08;;;;;;;7.90;4.03;;;;;;;20.91;54.21;99551.56;129723;1092;114872;-58
2021/08/12 06:56:38;;;;;;;6.53;3.40;;;;;;;20.86;54.45;99552.53;129761;1093;22538;-59
2021/08/12 06:59:11;;;;;;;6.88;3.48;;;;;;;20.85;54.25;99556.44;129664;1093;113807;-58
2021/08/12 07:01:50;;;;;;;5.08;3.55;;;;;;;20.85;54.15;99555.63;129833;1093;22573;-58
2021/08/12 07:04:21;;;;;;;6.00;3.30;;;;;;;20.81;53.86;99555.45;129757;1093;22635;-58
2021/08/12 07:06:51;;;;;;;6.58;3.30;;;;;;;20.78;53.98;99562.45;129692;1093;113445;-59
2021/08/12 07:09:21;;;;;;;11.38;4.08;;;;;;;20.75;54.08;99560.34;129820;1093;22647;-58
2021/08/12 07:11:53;;;;;;;7.45;3.15;;;;;;;20.71;54.38;99547.47;129688;1093;116238;-57
2021/08/12 07:14:53;;;;;;;5.05;3.33;;;;;;;20.76;53.69;99558.39;126334;1093;25123;-65
2021/08/12 07:17:23;;;;;;;8.25;3.53;;;;;;;20.75;54.55;99554.81;125223;1093;114109;-66
2021/08/12 07:20:01;;;;;;;9.40;3.60;;;;;;;20.81;54.72;99561.80;126250;1093;23197;-65
2021/08/12 07:22:30;;;;;;;9.58;3.80;;;;;;;20.89;54.53;99568.50;129777;1092;22595;-65
2021/08/12 07:25:00;;;;;;;12.80;3.63;;;;;;;20.92;53.79;99561.50;129689;1093;113837;-65
2021/08/12 07:27:29;;;;;;;7.48;3.35;;;;;;;20.94;53.11;99570.27;129789;1092;22628;-65
2021/08/12 07:29:59;;;;;;;4.38;3.00;;;;;;;20.94;53.61;99570.27;129708;1093;113659;-65
2021/08/12 07:32:27;;;;;;;7.03;4.40;;;;;;;20.94;53.57;99575.81;129768;1093;23022;-65
2021/08/12 07:34:57;;;;;;;5.30;3.30;;;;;;;20.91;53.40;99570.95;129721;1093;113699;-65
2021/08/12 07:37:26;;;;;;;4.53;3.30;;;;;;;20.90;53.25;99572.91;129725;1093;23385;-65
2021/08/12 07:39:57;;;;;;;4.10;2.98;;;;;;;20.88;53.39;99566.05;129743;1093;23202;-64
2021/08/12 07:42:38;;;;;;;7.28;3.15;;;;;;;20.92;54.40;99572.58;129724;1092;113627;-65
2021/08/12 07:45:08;;;;;;;5.03;3.33;;;;;;;21.00;53.94;99571.75;129801;1093;22633;-65
2021/08/12 07:47:42;;;;;;;9.23;3.25;;;;;;;21.03;53.35;99566.39;129603;1096;113799;-65
2021/08/12 07:50:11;;;;;;;6.63;3.30;;;;;;;21.07;53.53;99577.61;129708;1096;22585;-64
2021/08/12 07:52:41;;;;;;;4.50;2.73;;;;;;;21.10;53.47;99575.01;129703;1096;22598;-64
2021/08/12 07:55:10;;;;;;;5.97;2.87;;;;;;;21.15;53.79;99571.27;129628;1093;113398;-64
2021/08/12 07:57:39;;;;;;;3.78;3.35;;;;;;;21.24;53.38;99571.28;129767;1092;22556;-65
2021/08/12 08:00:09;;;;;;;5.25;3.08;;;;;;;21.30;53.74;99578.30;129672;1093;113968;-65
2021/08/12 08:02:47;;;;;;;3.88;2.80;;;;;;;21.38;52.95;99571.91;129764;1093;22564;-64
2021/08/12 08:05:18;;;;;;;9.60;2.75;;;;;;;21.45;52.38;99564.74;129619;1093;113844;-64
2021/08/12 08:08:07;;;;;;;3.80;2.80;;;;;;;21.49;52.59;99562.95;129797;1092;22740;-65
2021/08/12 08:10:39;;;;;;;3.27;2.50;;;;;;;21.53;52.86;99572.22;129699;1092;22608;-65
2021/08/12 08:13:08;;;;;;;186.75;157.53;;;;;;;21.58;52.54;99573.20;129671;1092;113836;-66
2021/08/12 08:15:37;;;;;;;18.88;12.83;;;;;;;21.63;52.87;99565.53;129744;1093;22559;-66
2021/08/12 08:18:09;;;;;;;27.98;19.70;;;;;;;21.75;52.07;99573.16;129665;1093;113274;-67
2021/08/12 08:20:58;;;;;;;6.90;5.15;;;;;;;21.84;51.52;99580.30;130053;1093;22535;-64
2021/08/12 08:23:27;;;;;;;20.60;17.55;;;;;;;21.86;50.66;99578.01;129843;1093;114792;-63
2021/08/12 08:25:55;;;;;;;9.93;3.83;;;;;;;21.93;50.43;99562.83;130087;1093;22550;-66
2021/08/12 08:28:25;;;;;;;5.55;2.65;;;;;;;21.97;50.88;99574.86;130098;1093;22741;-65
2021/08/12 08:30:54;;;;;;;8.70;2.80;;;;;;;22.04;50.01;99587.13;129961;1093;113599;-65
2021/08/12 08:33:23;;;;;;;6.93;3.30;;;;;;;22.05;50.29;99572.11;130071;1093;22667;-65
2021/08/12 08:35:52;;;;;;;5.40;2.58;;;;;;;22.06;49.59;99568.19;129941;1093;113416;-65
2021/08/12 08:38:21;;;;;;;4.70;2.95;;;;;;;22.08;48.39;99570.59;130092;1092;22565;-65
2021/08/12 08:40:50;;;;;;;4.38;2.80;;;;;;;22.06;48.66;99568.19;126666;1093;113822;-63
2021/08/12 08:43:19;;;;;;;3.75;2.75;;;;;;;22.09;49.25;99577.78;129989;1093;22586;-65
2021/08/12 08:45:48;;;;;;;4.60;2.53;;;;;;;22.13;49.18;99578.75;130033;1092;24117;-65
2021/08/12 08:48:17;;;;;;;6.75;3.08;;;;;;;22.16;48.94;99578.09;129763;1093;113505;-65
2021/08/12 08:50:46;;;;;;;9.28;3.00;;;;;;;22.16;48.93;99580.87;129849;1092;22526;-65
2021/08/12 08:53:18;;;;;;;5.50;2.78;;;;;;;22.18;49.02;99575.80;129926;1093;113803;-65
2021/08/12 08:55:47;;;;;;;3.65;2.33;;;;;;;22.22;48.41;99582.29;130084;1092;22665;-65
2021/08/12 08:58:16;;;;;;;6.40;2.78;;;;;;;22.27;48.70;99575.75;130067;1093;22564;-65
2021/08/12 09:00:45;;;;;;;11.83;3.58;;;;;;;22.32;49.22;99575.57;129770;1092;113585;-65
2021/08/12 09:03:15;;;;;;;9.50;3.20;;;;;;;22.39;48.88;99578.62;130054;1093;22581;-64
2021/08/12 09:05:43;;;;;;;5.03;2.58;;;;;;;22.47;49.57;99577.77;129907;1093;114071;-65
2021/08/12 09:08:12;;;;;;;3.38;2.80;;;;;;;22.53;48.84;99590.30;130050;1093;22557;-64
2021/08/12 09:10:42;;;;;;;4.03;2.53;;;;;;;22.57;48.81;99580.16;130105;1093;22689;-65
2021/08/12 09:13:13;;;;;;;5.58;3.10;;;;;;;22.60;48.36;99593.38;129962;1092;113437;-65
2021/08/12 09:15:44;;;;;;;6.10;3.65;;;;;;;22.61;48.17;99589.45;130076;1092;22555;-65
2021/08/12 09:18:19;;;;;;;83.38;8.15;;;;;;;22.63;47.84;99594.67;129738;1093;113554;-65
2021/08/12 09:20:57;;;;;;;5.98;2.63;;;;;;;22.67;47.32;99595.60;130051;1093;22578;-65
2021/08/12 09:23:29;;;;;;;9.58;3.38;;;;;;;22.73;46.93;99595.08;129992;1093;114382;-65
2021/08/12 09:25:58;;;;;;;4.98;3.55;;;;;;;22.77;45.88;99589.70;130105;1092;22561;-65
2021/08/12 09:28:28;;;;;;;5.65;3.38;;;;;;;22.80;45.69;99598.16;129947;1092;23051;-65
2021/08/12 09:31:01;;;;;;;13.10;4.35;;;;;;;22.80;45.97;99589.00;129968;1093;114412;-65
2021/08/12 09:33:39;;;;;;;5.18;4.00;;;;;;;22.81;46.60;99582.30;130095;1093;22699;-65
2021/08/12 09:36:30;;;;;;;10.73;4.35;;;;;;;22.87;47.25;99587.33;129732;1093;113929;-65
2021/08/12 09:39:29;;;;;;;5.50;3.68;;;;;;;22.94;46.75;99574.88;130038;1093;22718;-65
2021/08/12 09:41:58;;;;;;;10.00;4.13;;;;;;;23.01;45.37;99583.47;129593;1096;113904;-65
2021/08/12 09:44:54;;;;;;;13.30;4.55;;;;;;;23.05;44.53;99588.02;129447;1096;23414;-65
2021/08/12 09:47:28;;;;;;;7.55;3.65;;;;;;;23.09;43.36;99586.17;129641;1097;114553;-64
2021/08/12 09:49:59;;;;;;;7.10;4.00;;;;;;;23.10;43.61;99585.02;129727;1097;22537;-64
2021/08/12 09:52:32;;;;;;;6.68;3.30;;;;;;;23.12;43.55;99573.56;129730;1095;23219;-64
2021/08/12 09:55:08;;;;;;;8.75;4.05;;;;;;;23.14;44.04;99572.08;129615;1096;114154;-64
2021/08/12 09:57:46;;;;;;;5.10;3.65;;;;;;;23.18;43.91;99581.38;129695;1097;23362;-65
2021/08/12 10:00:25;;;;;;;9.73;4.00;;;;;;;23.21;44.03;99574.33;129613;1096;114376;-64
2021/08/12 10:02:54;;;;;;;7.88;3.65;;;;;;;23.24;44.07;99576.39;129735;1096;23448;-65
2021/08/12 10:05:23;;;;;;;7.50;3.50;;;;;;;23.26;44.16;99572.13;129611;1095;114470;-64
2021/08/12 10:07:54;;;;;;;8.33;3.95;;;;;;;23.33;43.54;99573.55;129717;1096;22562;-65
2021/08/12 10:10:28;;;;;;;5.88;3.63;;;;;;;23.33;43.42;99571.59;129698;1097;22572;-66
2021/08/12 10:12:59;;;;;;;7.15;4.40;;;;;;;23.35;44.06;99579.59;129682;1096;114900;-66
2021/08/12 10:15:38;;;;;;;8.43;3.93;;;;;;;23.38;44.12;99564.98;129754;1096;22559;-65
2021/08/12 10:18:07;;;;;;;6.58;3.33;;;;;;;23.44;43.00;99570.00;129339;1093;113951;-65
2021/08/12 10:20:37;;;;;;;5.48;3.83;;;;;;;23.49;43.73;99575.36;129985;1092;22613;-65
2021/08/12 10:23:06;;;;;;;7.20;3.88;;;;;;;23.56;43.52;99578.41;129920;1092;114182;-65
2021/08/12 10:25:36;;;;;;;8.90;4.65;;;;;;;23.63;43.34;99574.27;130125;1093;22525;-66
2021/08/12 10:28:07;;;;;;;10.03;3.93;;;;;;;23.69;43.25;99584.01;129994;1093;22699;-66
2021/08/12 10:30:37;;;;;;;5.63;4.10;;;;;;;23.71;42.57;99582.52;129982;1093;113948;-66
2021/08/12 10:33:07;;;;;;;6.03;3.68;;;;;;;23.71;42.63;99576.13;130081;1093;23047;-65
2021/08/12 10:35:36;;;;;;;6.75;3.63;;;;;;;23.73;42.80;99582.17;129650;1093;113780;-66
2021/08/12 10:38:05;;;;;;;7.73;3.85;;;;;;;23.75;42.60;99591.80;130055;1092;22633;-66
2021/08/12 10:40:38;;;;;;;6.73;3.40;;;;;;;23.76;41.25;99585.09;127229;1092;22864;-65
2021/08/12 10:43:08;;;;;;;4.85;3.60;;;;;;;23.78;41.08;99581.96;129963;1093;114124;-66
2021/08/12 10:46:14;;;;;;;6.48;3.30;;;;;;;23.77;41.51;99580.33;129982;1093;23000;-66
2021/08/12 10:48:50;;;;;;;9.63;3.78;;;;;;;23.77;40.92;99581.15;129939;1093;114676;-66
2021/08/12 10:51:21;;;;;;;6.95;3.73;;;;;;;23.79;41.73;99573.27;130084;1092;22611;-66
2021/08/12 10:54:15;;;;;;;7.80;3.88;;;;;;;23.86;42.21;99576.28;129972;1093;114264;-66
2021/08/12 10:56:46;;;;;;;12.05;4.25;;;;;;;23.96;40.89;99586.16;130084;1093;22597;-66
2021/08/12 10:59:15;;;;;;;10.45;3.85;;;;;;;24.03;40.72;99591.16;129938;1093;114328;-66
2021/08/12 11:01:44;;;;;;;4.95;3.50;;;;;;;24.04;40.96;99593.60;129864;1093;23143;-66
2021/08/12 11:04:48;;;;;;;5.53;3.13;;;;;;;24.04;40.98;99590.82;130108;1092;22598;-66
2021/08/12 11:07:36;;;;;;;7.18;3.30;;;;;;;24.04;40.54;99590.00;129884;1092;113608;-66
2021/08/12 11:10:10;;;;;;;7.83;3.13;;;;;;;24.01;39.60;99585.94;130053;1093;22707;-66
2021/08/12 11:12:57;;;;;;;7.08;3.80;;;;;;;23.97;39.93;99574.67;129961;1093;113814;-65
2021/08/12 11:15:40;;;;;;;6.73;3.23;;;;;;;23.93;40.08;99589.65;130103;1093;22545;-66
2021/08/12 11:18:11;;;;;;;5.15;3.20;;;;;;;23.91;40.17;99589.98;129990;1093;113749;-66
2021/08/12 11:20:49;;;;;;;10.13;3.55;;;;;;;23.93;40.76;99584.90;130058;1092;22621;-67
2021/08/12 11:23:38;;;;;;;8.95;2.88;;;;;;;24.00;39.92;99586.28;129717;1092;114004;-66
2021/08/12 11:26:08;;;;;;;4.60;2.80;;;;;;;24.05;40.48;99589.66;129827;1093;22562;-66
2021/08/12 11:28:40;;;;;;;6.78;3.53;;;;;;;24.06;40.13;99588.51;130079;1093;22615;-65
2021/08/12 11:31:18;;;;;;;3.93;2.85;;;;;;;24.08;40.24;99591.76;129953;1091;114129;-66
2021/08/12 11:33:50;;;;;;;7.48;3.10;;;;;;;24.12;40.37;99601.02;130105;1093;22528;-65
2021/08/12 11:36:19;;;;;;;8.10;3.13;;;;;;;24.16;39.80;99601.97;129942;1092;113827;-66
2021/08/12 11:39:08;;;;;;;7.45;3.20;;;;;;;24.19;40.62;99608.81;130075;1093;22531;-66
2021/08/12 11:41:38;;;;;;;5.20;3.18;;;;;;;24.19;40.47;99601.28;129994;1093;114073;-66
2021/08/12 11:44:11;;;;;;;6.75;3.30;;;;;;;24.22;41.08;99599.78;130098;1092;23296;-65